sensor_id;sensor_type;location;lat;lon;timestamp;P1;durP1;ratioP1;P2;durP2;ratioP2
62911;SDS011;49111;51.028;4.218;2023-02-15T06:48:28;43.00;;;25.60;;
62911;SDS011;49111;51.028;4.218;2023-02-15T06:50:54;47.03;;;29.75;;
62911;SDS011;49111;51.028;4.218;2023-02-15T06:53:20;49.47;;;28.25;;
62911;SDS011;49111;51.028;4.218;2023-02-15T06:55:46;48.25;;;25.85;;
62911;SDS011;49111;51.028;4.218;2023-02-15T06:58:12;45.25;;;27.83;;
62911;SDS011;49111;51.028;4.218;2023-02-15T07:00:37;45.92;;;29.90;;
62911;SDS011;49111;51.028;4.218;2023-02-15T07:03:03;44.17;;;27.15;;
62911;SDS011;49111;51.028;4.218;2023-02-15T07:05:30;48.22;;;27.17;;
62911;SDS011;49111;51.028;4.218;2023-02-15T07:07:58;52.38;;;26.67;;
62911;SDS011;49111;51.028;4.218;2023-02-15T07:10:24;49.35;;;27.02;;
62911;SDS011;49111;51.028;4.218;2023-02-15T07:12:53;44.95;;;24.90;;
62911;SDS011;49111;51.028;4.218;2023-02-15T07:15:21;49.08;;;27.88;;
62911;SDS011;49111;51.028;4.218;2023-02-15T07:17:54;44.50;;;26.05;;
62911;SDS011;49111;51.028;4.218;2023-02-15T07:20:23;48.55;;;27.63;;
62911;SDS011;49111;51.028;4.218;2023-02-15T07:22:51;49.13;;;26.20;;
62911;SDS011;49111;51.028;4.218;2023-02-15T07:25:17;51.97;;;25.73;;
62911;SDS011;49111;51.028;4.218;2023-02-15T07:27:43;42.22;;;26.38;;
62911;SDS011;49111;51.028;4.218;2023-02-15T07:30:13;43.78;;;26.90;;
62911;SDS011;49111;51.028;4.218;2023-02-15T07:32:40;39.78;;;25.73;;
62911;SDS011;49111;51.028;4.218;2023-02-15T07:35:27;49.22;;;27.55;;
62911;SDS011;49111;51.028;4.218;2023-02-15T07:37:53;49.50;;;28.25;;
62911;SDS011;49111;51.028;4.218;2023-02-15T07:40:20;48.35;;;27.33;;
62911;SDS011;49111;51.028;4.218;2023-02-15T07:42:50;44.53;;;25.55;;
62911;SDS011;49111;51.028;4.218;2023-02-15T07:45:22;46.20;;;26.35;;
62911;SDS011;49111;51.028;4.218;2023-02-15T07:47:48;53.92;;;31.27;;
62911;SDS011;49111;51.028;4.218;2023-02-15T07:50:18;47.47;;;29.80;;
62911;SDS011;49111;51.028;4.218;2023-02-15T07:52:49;48.35;;;28.23;;
62911;SDS011;49111;51.028;4.218;2023-02-15T07:55:16;45.38;;;27.75;;
62911;SDS011;49111;51.028;4.218;2023-02-15T08:00:50;46.13;;;27.75;;
62911;SDS011;49111;51.028;4.218;2023-02-15T08:03:23;43.28;;;27.75;;
62911;SDS011;49111;51.028;4.218;2023-02-15T08:05:59;46.63;;;27.83;;
62911;SDS011;49111;51.028;4.218;2023-02-15T08:08:25;43.22;;;27.63;;
62911;SDS011;49111;51.028;4.218;2023-02-15T08:11:09;45.50;;;29.10;;
62911;SDS011;49111;51.028;4.218;2023-02-15T08:13:53;49.22;;;28.23;;
62911;SDS011;49111;51.028;4.218;2023-02-15T08:16:42;49.55;;;29.13;;
62911;SDS011;49111;51.028;4.218;2023-02-15T08:19:15;50.97;;;27.98;;
62911;SDS011;49111;51.028;4.218;2023-02-15T08:21:42;46.33;;;26.80;;
62911;SDS011;49111;51.028;4.218;2023-02-15T08:24:12;49.22;;;29.27;;
62911;SDS011;49111;51.028;4.218;2023-02-15T08:26:42;42.63;;;26.67;;
62911;SDS011;49111;51.028;4.218;2023-02-15T08:29:18;47.00;;;27.45;;
62911;SDS011;49111;51.028;4.218;2023-02-15T08:31:54;47.08;;;26.60;;
62911;SDS011;49111;51.028;4.218;2023-02-15T08:34:31;50.65;;;29.52;;
62911;SDS011;49111;51.028;4.218;2023-02-15T08:36:59;47.85;;;28.92;;
62911;SDS011;49111;51.028;4.218;2023-02-15T08:39:26;46.58;;;28.80;;
62911;SDS011;49111;51.028;4.218;2023-02-15T08:41:51;46.40;;;26.67;;
62911;SDS011;49111;51.028;4.218;2023-02-15T08:44:19;46.35;;;27.05;;
62911;SDS011;49111;51.028;4.218;2023-02-15T08:46:49;44.83;;;24.08;;
62911;SDS011;49111;51.028;4.218;2023-02-15T08:49:17;40.50;;;25.48;;
62911;SDS011;49111;51.028;4.218;2023-02-15T08:51:47;39.55;;;25.20;;
62911;SDS011;49111;51.028;4.218;2023-02-15T08:54:16;38.30;;;25.05;;
62911;SDS011;49111;51.028;4.218;2023-02-15T08:56:44;38.95;;;26.80;;
62911;SDS011;49111;51.028;4.218;2023-02-15T08:59:17;43.03;;;28.08;;
62911;SDS011;49111;51.028;4.218;2023-02-15T09:01:50;48.58;;;29.55;;
62911;SDS011;49111;51.028;4.218;2023-02-15T09:04:20;42.67;;;26.92;;
62911;SDS011;49111;51.028;4.218;2023-02-15T09:06:51;43.10;;;27.13;;
62911;SDS011;49111;51.028;4.218;2023-02-15T09:09:17;50.35;;;28.38;;
62911;SDS011;49111;51.028;4.218;2023-02-15T09:11:50;49.78;;;31.13;;
62911;SDS011;49111;51.028;4.218;2023-02-15T09:14:19;42.78;;;27.48;;
62911;SDS011;49111;51.028;4.218;2023-02-15T09:16:53;47.70;;;27.90;;
62911;SDS011;49111;51.028;4.218;2023-02-15T09:19:23;51.63;;;31.80;;
62911;SDS011;49111;51.028;4.218;2023-02-15T09:21:57;52.33;;;30.38;;
62911;SDS011;49111;51.028;4.218;2023-02-15T09:24:31;45.45;;;27.45;;
62911;SDS011;49111;51.028;4.218;2023-02-15T09:33:06;48.28;;;26.88;;
62911;SDS011;49111;51.028;4.218;2023-02-15T09:35:39;49.08;;;25.33;;
62911;SDS011;49111;51.028;4.218;2023-02-15T09:38:12;53.55;;;29.65;;
62911;SDS011;49111;51.028;4.218;2023-02-15T09:40:43;49.95;;;28.02;;
62911;SDS011;49111;51.028;4.218;2023-02-15T09:43:31;49.78;;;26.63;;
62911;SDS011;49111;51.028;4.218;2023-02-15T09:46:27;39.58;;;24.65;;
62911;SDS011;49111;51.028;4.218;2023-02-15T09:49:20;46.63;;;25.13;;
62911;SDS011;49111;51.028;4.218;2023-02-15T10:10:02;34.95;;;21.02;;
62911;SDS011;49111;51.028;4.218;2023-02-15T10:12:52;35.15;;;19.73;;
62911;SDS011;49111;51.028;4.218;2023-02-15T10:27:06;36.72;;;22.10;;
62911;SDS011;49111;51.028;4.218;2023-02-15T10:32:37;37.55;;;21.98;;
62911;SDS011;49111;51.028;4.218;2023-02-15T10:39:18;30.95;;;18.90;;
62911;SDS011;49111;51.028;4.218;2023-02-15T10:44:58;36.20;;;19.90;;
62911;SDS011;49111;51.028;4.218;2023-02-15T10:47:41;33.10;;;19.05;;
62911;SDS011;49111;51.028;4.218;2023-02-15T10:50:24;37.22;;;21.33;;
62911;SDS011;49111;51.028;4.218;2023-02-15T11:00:07;36.00;;;21.70;;
62911;SDS011;49111;51.028;4.218;2023-02-15T11:08:02;37.75;;;21.75;;
62911;SDS011;49111;51.028;4.218;2023-02-15T11:10:39;35.67;;;20.88;;
62911;SDS011;49111;51.028;4.218;2023-02-15T11:13:14;32.22;;;19.88;;
62911;SDS011;49111;51.028;4.218;2023-02-15T11:16:17;34.83;;;20.90;;
62911;SDS011;49111;51.028;4.218;2023-02-15T11:18:43;38.65;;;23.30;;
62911;SDS011;49111;51.028;4.218;2023-02-15T11:21:32;38.60;;;21.65;;
62911;SDS011;49111;51.028;4.218;2023-02-15T11:24:08;36.08;;;21.23;;
62911;SDS011;49111;51.028;4.218;2023-02-15T11:26:59;36.03;;;21.20;;
62911;SDS011;49111;51.028;4.218;2023-02-15T11:30:13;35.72;;;21.20;;
62911;SDS011;49111;51.028;4.218;2023-02-15T11:32:31;35.75;;;22.50;;
62911;SDS011;49111;51.028;4.218;2023-02-15T11:37:50;38.42;;;22.30;;
62911;SDS011;49111;51.028;4.218;2023-02-15T11:43:28;33.55;;;21.63;;
62911;SDS011;49111;51.028;4.218;2023-02-15T11:46:07;36.17;;;21.33;;
62911;SDS011;49111;51.028;4.218;2023-02-15T11:48:40;41.70;;;22.73;;
62911;SDS011;49111;51.028;4.218;2023-02-15T11:51:11;39.50;;;22.10;;
62911;SDS011;49111;51.028;4.218;2023-02-15T11:53:42;36.30;;;20.60;;
62911;SDS011;49111;51.028;4.218;2023-02-15T11:56:45;37.22;;;21.85;;
62911;SDS011;49111;51.028;4.218;2023-02-15T11:59:11;35.75;;;21.27;;
62911;SDS011;49111;51.028;4.218;2023-02-15T12:01:47;39.58;;;21.30;;
62911;SDS011;49111;51.028;4.218;2023-02-15T12:09:48;37.58;;;20.30;;
62911;SDS011;49111;51.028;4.218;2023-02-15T12:15:00;39.15;;;22.65;;
62911;SDS011;49111;51.028;4.218;2023-02-15T12:17:39;36.10;;;22.63;;
62911;SDS011;49111;51.028;4.218;2023-02-15T12:22:55;37.40;;;22.17;;
62911;SDS011;49111;51.028;4.218;2023-02-15T12:26:03;39.17;;;22.08;;
62911;SDS011;49111;51.028;4.218;2023-02-15T12:28:35;33.72;;;21.45;;
62911;SDS011;49111;51.028;4.218;2023-02-15T12:31:21;35.90;;;21.02;;
62911;SDS011;49111;51.028;4.218;2023-02-15T12:37:30;35.85;;;22.08;;
62911;SDS011;49111;51.028;4.218;2023-02-15T12:54:15;34.83;;;22.15;;
62911;SDS011;49111;51.028;4.218;2023-02-15T12:57:17;40.00;;;21.90;;
62911;SDS011;49111;51.028;4.218;2023-02-15T13:00:25;38.22;;;22.00;;
62911;SDS011;49111;51.028;4.218;2023-02-15T13:02:59;35.42;;;22.05;;
62911;SDS011;49111;51.028;4.218;2023-02-15T13:23:34;43.28;;;23.58;;
62911;SDS011;49111;51.028;4.218;2023-02-15T13:26:02;35.70;;;21.10;;
62911;SDS011;49111;51.028;4.218;2023-02-15T13:28:41;36.03;;;21.52;;
62911;SDS011;49111;51.028;4.218;2023-02-15T13:31:20;36.55;;;21.80;;
62911;SDS011;49111;51.028;4.218;2023-02-15T13:40:42;39.50;;;21.67;;
62911;SDS011;49111;51.028;4.218;2023-02-15T14:00:11;40.15;;;21.92;;
62911;SDS011;49111;51.028;4.218;2023-02-15T14:05:34;36.67;;;21.38;;
62911;SDS011;49111;51.028;4.218;2023-02-15T14:32:31;36.08;;;21.63;;
62911;SDS011;49111;51.028;4.218;2023-02-15T14:35:13;37.30;;;21.88;;
62911;SDS011;49111;51.028;4.218;2023-02-15T14:49:23;34.55;;;21.35;;
62911;SDS011;49111;51.028;4.218;2023-02-15T14:52:10;39.72;;;23.05;;
62911;SDS011;49111;51.028;4.218;2023-02-15T15:02:30;31.57;;;20.13;;
62911;SDS011;49111;51.028;4.218;2023-02-15T15:05:09;33.83;;;19.88;;
62911;SDS011;49111;51.028;4.218;2023-02-15T15:07:47;33.30;;;20.42;;
62911;SDS011;49111;51.028;4.218;2023-02-15T15:12:52;32.88;;;20.67;;
62911;SDS011;49111;51.028;4.218;2023-02-15T15:18:04;32.38;;;18.00;;
62911;SDS011;49111;51.028;4.218;2023-02-15T15:20:41;36.05;;;19.92;;
62911;SDS011;49111;51.028;4.218;2023-02-15T15:25:42;38.22;;;21.83;;
62911;SDS011;49111;51.028;4.218;2023-02-15T15:33:52;34.97;;;21.67;;
62911;SDS011;49111;51.028;4.218;2023-02-15T15:39:38;31.58;;;20.77;;
62911;SDS011;49111;51.028;4.218;2023-02-15T15:43:03;37.83;;;21.08;;
62911;SDS011;49111;51.028;4.218;2023-02-15T15:48:40;38.20;;;20.55;;
62911;SDS011;49111;51.028;4.218;2023-02-15T15:51:11;36.05;;;21.48;;
62911;SDS011;49111;51.028;4.218;2023-02-15T15:53:48;37.10;;;20.45;;
62911;SDS011;49111;51.028;4.218;2023-02-15T15:56:22;33.08;;;19.00;;
62911;SDS011;49111;51.028;4.218;2023-02-15T15:58:54;36.85;;;20.85;;
62911;SDS011;49111;51.028;4.218;2023-02-15T16:01:27;36.08;;;17.55;;
62911;SDS011;49111;51.028;4.218;2023-02-15T16:03:57;33.63;;;20.48;;
62911;SDS011;49111;51.028;4.218;2023-02-15T16:06:35;30.55;;;19.25;;
62911;SDS011;49111;51.028;4.218;2023-02-15T16:12:15;38.55;;;20.48;;
62911;SDS011;49111;51.028;4.218;2023-02-15T16:14:45;34.83;;;21.65;;
62911;SDS011;49111;51.028;4.218;2023-02-15T16:17:22;33.13;;;20.77;;
62911;SDS011;49111;51.028;4.218;2023-02-15T16:19:58;31.98;;;19.95;;
62911;SDS011;49111;51.028;4.218;2023-02-15T16:22:35;36.22;;;21.38;;
62911;SDS011;49111;51.028;4.218;2023-02-15T16:28:29;32.55;;;19.45;;
62911;SDS011;49111;51.028;4.218;2023-02-15T16:31:07;31.00;;;18.70;;
62911;SDS011;49111;51.028;4.218;2023-02-15T16:33:55;40.78;;;22.35;;
62911;SDS011;49111;51.028;4.218;2023-02-15T16:36:27;36.08;;;20.50;;
62911;SDS011;49111;51.028;4.218;2023-02-15T16:41:44;36.22;;;21.17;;
62911;SDS011;49111;51.028;4.218;2023-02-15T16:44:19;40.05;;;22.88;;
62911;SDS011;49111;51.028;4.218;2023-02-15T16:46:49;38.78;;;22.95;;
62911;SDS011;49111;51.028;4.218;2023-02-15T16:49:27;38.70;;;21.90;;
62911;SDS011;49111;51.028;4.218;2023-02-15T16:54:24;42.80;;;22.55;;
62911;SDS011;49111;51.028;4.218;2023-02-15T16:56:52;36.92;;;21.88;;
62911;SDS011;49111;51.028;4.218;2023-02-15T16:59:19;39.80;;;23.38;;
62911;SDS011;49111;51.028;4.218;2023-02-15T17:01:47;38.83;;;23.20;;
62911;SDS011;49111;51.028;4.218;2023-02-15T17:04:14;41.15;;;23.80;;
62911;SDS011;49111;51.028;4.218;2023-02-15T17:07:05;35.30;;;21.13;;
62911;SDS011;49111;51.028;4.218;2023-02-15T17:09:51;36.80;;;21.83;;
62911;SDS011;49111;51.028;4.218;2023-02-15T17:17:51;41.17;;;22.33;;
62911;SDS011;49111;51.028;4.218;2023-02-15T17:20:17;41.85;;;24.38;;
62911;SDS011;49111;51.028;4.218;2023-02-15T17:22:45;43.50;;;24.15;;
62911;SDS011;49111;51.028;4.218;2023-02-15T17:25:19;48.03;;;26.83;;
62911;SDS011;49111;51.028;4.218;2023-02-15T17:27:50;44.10;;;27.45;;
62911;SDS011;49111;51.028;4.218;2023-02-15T17:30:24;47.83;;;28.63;;
62911;SDS011;49111;51.028;4.218;2023-02-15T17:33:02;44.78;;;26.33;;
62911;SDS011;49111;51.028;4.218;2023-02-15T17:35:30;41.40;;;27.10;;
62911;SDS011;49111;51.028;4.218;2023-02-15T17:38:16;44.05;;;25.55;;
62911;SDS011;49111;51.028;4.218;2023-02-15T17:40:45;50.33;;;29.48;;
62911;SDS011;49111;51.028;4.218;2023-02-15T17:43:14;45.60;;;30.75;;
62911;SDS011;49111;51.028;4.218;2023-02-15T17:45:46;46.55;;;28.08;;
62911;SDS011;49111;51.028;4.218;2023-02-15T17:48:37;43.28;;;27.98;;
62911;SDS011;49111;51.028;4.218;2023-02-15T17:51:04;41.85;;;26.52;;
62911;SDS011;49111;51.028;4.218;2023-02-15T17:53:35;56.00;;;38.15;;
62911;SDS011;49111;51.028;4.218;2023-02-15T17:56:01;52.95;;;30.98;;
62911;SDS011;49111;51.028;4.218;2023-02-15T17:58:34;46.20;;;27.27;;
62911;SDS011;49111;51.028;4.218;2023-02-15T18:01:05;49.95;;;30.25;;
62911;SDS011;49111;51.028;4.218;2023-02-15T18:03:54;47.10;;;30.63;;
62911;SDS011;49111;51.028;4.218;2023-02-15T18:06:40;48.45;;;29.02;;
62911;SDS011;49111;51.028;4.218;2023-02-15T18:09:25;50.72;;;29.70;;
62911;SDS011;49111;51.028;4.218;2023-02-15T18:12:32;49.17;;;28.20;;
62911;SDS011;49111;51.028;4.218;2023-02-15T18:15:01;47.42;;;27.60;;
62911;SDS011;49111;51.028;4.218;2023-02-15T18:17:32;41.65;;;27.00;;
62911;SDS011;49111;51.028;4.218;2023-02-15T18:20:04;46.00;;;25.73;;
62911;SDS011;49111;51.028;4.218;2023-02-15T18:22:32;47.78;;;26.23;;
62911;SDS011;49111;51.028;4.218;2023-02-15T18:24:58;42.47;;;26.88;;
62911;SDS011;49111;51.028;4.218;2023-02-15T18:27:24;50.08;;;29.15;;
62911;SDS011;49111;51.028;4.218;2023-02-15T18:29:50;48.88;;;25.83;;
62911;SDS011;49111;51.028;4.218;2023-02-15T18:32:18;42.58;;;25.98;;
62911;SDS011;49111;51.028;4.218;2023-02-15T18:34:51;43.28;;;24.67;;
62911;SDS011;49111;51.028;4.218;2023-02-15T18:37:20;40.58;;;25.38;;
62911;SDS011;49111;51.028;4.218;2023-02-15T18:39:48;66.78;;;29.77;;
62911;SDS011;49111;51.028;4.218;2023-02-15T18:42:19;48.80;;;27.08;;
62911;SDS011;49111;51.028;4.218;2023-02-15T18:44:54;41.75;;;23.70;;
62911;SDS011;49111;51.028;4.218;2023-02-15T18:47:21;44.75;;;27.98;;
62911;SDS011;49111;51.028;4.218;2023-02-15T18:49:47;41.60;;;28.13;;
62911;SDS011;49111;51.028;4.218;2023-02-15T18:52:15;55.22;;;31.10;;
62911;SDS011;49111;51.028;4.218;2023-02-15T18:54:43;46.30;;;28.95;;
62911;SDS011;49111;51.028;4.218;2023-02-15T18:57:13;44.88;;;25.85;;
62911;SDS011;49111;51.028;4.218;2023-02-15T18:59:40;46.00;;;27.67;;
62911;SDS011;49111;51.028;4.218;2023-02-15T19:02:14;40.83;;;25.20;;
62911;SDS011;49111;51.028;4.218;2023-02-15T19:04:41;49.15;;;28.55;;
62911;SDS011;49111;51.028;4.218;2023-02-15T19:07:19;52.92;;;30.88;;
62911;SDS011;49111;51.028;4.218;2023-02-15T19:09:48;51.80;;;29.30;;
62911;SDS011;49111;51.028;4.218;2023-02-15T19:12:16;47.15;;;28.42;;
62911;SDS011;49111;51.028;4.218;2023-02-15T19:14:43;43.40;;;27.02;;
62911;SDS011;49111;51.028;4.218;2023-02-15T19:17:13;42.38;;;25.08;;
62911;SDS011;49111;51.028;4.218;2023-02-15T19:19:41;46.28;;;27.35;;
62911;SDS011;49111;51.028;4.218;2023-02-15T19:22:10;45.38;;;26.05;;
62911;SDS011;49111;51.028;4.218;2023-02-15T19:24:41;45.03;;;27.02;;
62911;SDS011;49111;51.028;4.218;2023-02-15T19:27:13;49.15;;;28.08;;
